Аэропорт: Талаги. Архангельск

ICAO: ULAA

METAR:
2019-11-21 09:00:00
ULAA 210900Z 27003MPS 230V310 9999 OVC008 03/02 Q1035 R26/610255 NOSIG RMK QFE775/1033
METAR:
2019-11-21 07:51:00
TAF ULAA 210751Z 2109/2209 25003MPS 6000 BKN011 TEMPO 2109/2209 27003G09MPS 3100 -SHSNRA BR BKN007 BKN012CB